Station: Gabo Island  

  Atmospheric Gas Attenuation - ITU Rec 676-11   ----------------- dB/100km -----------------
Date Time Temp RH % AH g/m3 Dew Point Wind Direction Speed kph Gust kph Barometer mB Rainfall Since 9am 24GHz 47GHz 76GHz 122GHz 134GHz 241GHz
08/05 12:30 15 83 10.64 12.1 61 80 1014.1 1.2 23.9 29.0 47.6 125.3 124.5 429.8
08/05 12:20 15.2 84 10.9 12.5 61 72 1014.3 1.2 24.4 29.3 48.6 127.9 127.8 441.5
08/05 12:10 15.3 83 10.84 12.4 56 61 1014.3 1.2 24.3 29.2 48.3 127.1 126.8 438.0
08/05 12:00 14.7 85 10.7 12.2 65 82 1014.1 1.2 24.0 29.2 48.0 126.5 125.8 434.4
08/05 11:50 14.6 89 11.14 12.8 65 72 1014.2 1.2 25.0 30.0 50.0 131.7 132.2 456.8
08/05 11:40 14.2 90 10.99 12.6 59 72 1014.2 1.2 24.7 29.8 49.6 130.6 130.8 451.7
08/05 11:30 13.8 90 10.72 12.2 67 83 1014.2 1.2 24.1 29.5 48.7 128.2 127.6 440.5
08/05 11:20 15.1 82 10.58 12.1 72 87 1014 0.2 23.8 28.8 47.3 124.4 123.5 426.3
08/05 11:10 15.3 81 10.58 12.1 67 80 1013.9 0.2 23.7 28.7 47.2 124.1 123.1 425.2
08/05 11:00 15 81 10.39 11.8 70 87 1013.8 0.2 23.4 28.5 46.5 122.4 121.0 417.6
08/05 10:50 14.9 84 10.71 12.2 63 74 1013.9 0.2 24.0 29.1 48.0 126.2 125.6 433.7
08/05 10:40 15 84 10.77 12.3 56 67 1013.8 0.2 24.2 29.2 48.1 126.7 126.3 436.1
08/05 10:30 14.6 85 10.64 12.1 57 72 1013.8 0.2 23.9 29.1 47.8 125.9 125.1 431.9
08/05 10:20 14.6 88 11.01 12.6 57 65 1013.7 0.2 24.7 29.7 49.4 130.1 130.3 450.2
08/05 10:10 14.3 85 10.44 11.8 74 91 1013.3 0.2 23.5 28.8 47.1 124.0 122.7 423.6
08/05 10:00 14.3 86 10.57 12 56 76 1013.2 0.2 23.8 29.0 47.7 125.5 124.5 430.0
08/05 09:50 14.5 86 10.7 12.2 56 65 1013.2 0 24.1 29.2 48.1 126.7 126.0 435.2
08/05 09:40 14.3 87 10.69 12.2 67 82 1012.9 0 24.0 29.2 48.2 126.9 126.2 435.8
08/05 09:30 13.8 89 10.6 12 59 78 1013.1 0 23.9 29.2 48.1 126.7 125.8 434.2
08/05 09:20 13.7 92 10.89 12.4 61 69 1013.2 0 24.5 29.8 49.5 130.2 130.1 449.3
08/05 09:10 13.4 92 10.7 12.1 54 59 1013.1 0 24.1 29.6 48.8 128.5 127.9 441.5
08/05 09:00 13.1 92 10.5 11.8 54 67 1013.1 0 23.7 29.3 48.1 126.7 125.5 433.2
08/05 08:50 13.3 92 10.63 12 56 67 1013 19.2 24.0 29.5 48.6 127.8 127.0 438.5
08/05 08:40 13.1 91 10.38 11.7 59 67 1012.9 19 23.4 29.1 47.6 125.2 123.8 427.1
08/05 08:30 13.3 91 10.51 11.9 57 76 1012.8 18.6 23.7 29.2 48.0 126.4 125.3 432.5
08/05 08:20 13.4 90 10.46 11.8 54 63 1012.8 18.6 23.6 29.1 47.8 125.7 124.4 429.4
08/05 08:10 13.8 86 10.25 11.5 67 76 1012.4 18.4 23.1 28.6 46.6 122.6 120.8 416.7
08/05 08:00 13.6 86 10.12 11.3 59 76 1012.3 18.4 22.9 28.4 46.1 121.4 119.3 411.4
08/05 07:50 13.8 88 10.49 11.8 52 61 1012.3 18.4 23.6 29.0 47.6 125.3 124.1 428.5
08/05 07:40 13.8 88 10.49 11.8 61 70 1012.2 18.4 23.6 29.0 47.6 125.3 124.1 428.5
08/05 07:30 13.7 87 10.3 11.6 61 82 1012 18.4 23.2 28.7 46.8 123.3 121.6 419.6
08/05 07:20 13.5 88 10.29 11.6 63 69 1011.9 18.4 23.2 28.8 46.9 123.5 121.8 420.2
08/05 07:10 13.5 89 10.41 11.7 59 69 1011.8 18.4 23.5 29.0 47.4 124.8 123.4 426.1
08/05 07:00 13.6 85 10 11.1 65 80 1011.6 18.4 22.6 28.2 45.6 120.0 117.5 405.4
08/05 06:50 13.8 85 10.13 11.3 57 65 1011.3 18.2 22.9 28.4 46.0 121.1 119.0 410.5
08/05 06:40 13.8 83 9.89 11 61 72 1011.1 18.2 22.4 27.9 45.0 118.4 115.6 398.8
08/05 06:30 13.5 86 10.06 11.2 63 82 1011.1 18.2 22.7 28.3 45.9 120.7 118.5 408.6
08/05 06:20 13.6 86 10.12 11.3 63 72 1010.9 18.2 22.9 28.4 46.1 121.2 119.1 411.0
08/05 06:10 14.3 79 9.71 10.7 63 78 1010.8 18 21.9 27.5 43.9 115.6 112.4 387.6
08/05 06:00 14.2 77 9.4 10.2 69 95 1010.5 18 21.3 27.0 42.7 112.3 108.3 373.3
08/05 05:50 14.1 79 9.59 10.5 61 74 1010.4 18 21.7 27.3 43.5 114.5 111.0 382.7
08/05 05:40 14.1 79 9.59 10.5 54 65 1010.2 18 21.7 27.3 43.5 114.5 111.0 382.7
08/05 05:30 14 77 9.29 10 61 83 1010 18 21.1 26.8 42.3 111.3 107.1 368.9
08/05 05:20 14.1 78 9.47 10.3 56 72 1010.3 18 21.4 27.1 43.0 113.2 109.4 377.0
08/05 05:10 14 75 9.05 9.6 65 76 1010 18 20.5 26.4 41.4 108.7 103.8 357.6
08/05 05:00 13.8 74 8.82 9.3 63 76 1009.9 18 20.1 26.1 40.5 106.5 101.0 347.8
08/05 04:50 14.1 76 9.22 9.9 59 69 1010.2 18 20.9 26.7 42.0 110.4 106.0 365.2
08/05 04:40 14 74 8.93 9.4 65 74 1010.1 18 20.3 26.3 40.9 107.4 102.3 352.0
08/05 04:30 14.1 77 9.35 10.1 57 80 1010.1 18 21.2 26.9 42.5 111.8 107.7 371.3
08/05 04:20 14.1 75 9.1 9.7 61 74 1010.2 18 20.6 26.5 41.5 109.1 104.4 359.5
08/05 04:10 14 75 9.05 9.6 67 72 1010.2 18 20.5 26.5 41.4 108.7 103.9 357.7
08/05 04:00 13.9 73 8.75 9.1 65 80 1010.2 18 19.9 26.0 40.2 105.6 100.0 344.2
08/05 03:50 13.8 74 8.82 9.3 65 76 1010.2 18 20.1 26.1 40.5 106.5 101.1 347.8
08/05 03:40 13.7 76 9 9.6 70 80 1010.5 18 20.5 26.5 41.3 108.6 103.6 356.8
08/05 03:30 13.8 74 8.82 9.3 56 70 1010.5 18 20.1 26.1 40.6 106.5 101.1 347.9
08/05 03:20 13.5 72 8.42 8.6 54 72 1010.7 18 19.2 25.6 39.1 102.7 96.2 330.8
08/05 03:10 13.3 73 8.43 8.6 52 57 1011 18 19.3 25.7 39.3 103.1 96.6 332.2
08/05 03:00 13.2 74 8.5 8.7 48 63 1011.1 18 19.4 25.8 39.6 103.9 97.7 335.8
08/05 02:50 12.7 73 8.13 8 44 56 1011.3 18 18.6 25.4 38.4 100.7 93.4 320.9
08/05 02:40 12.5 72 7.92 7.6 46 56 1011.5 18 18.2 25.1 37.6 98.7 90.9 312.1
08/05 02:30 12.4 73 7.98 7.7 48 61 1011.7 18 18.3 25.2 37.9 99.5 91.8 315.3
08/05 02:20 12.1 72 7.72 7.2 52 61 1011.9 18 17.8 24.9 37.0 97.1 88.8 304.6
08/05 02:10 12 73 7.78 7.3 48 56 1012 18 17.9 25.0 37.3 97.9 89.7 307.8
08/05 02:00 11.9 73 7.73 7.2 44 56 1012.3 18 17.8 25.0 37.2 97.5 89.2 305.9
08/05 01:50 11.7 73 7.64 7 52 56 1012.4 18 17.6 24.9 36.9 96.8 88.2 302.6
08/05 01:40 11.6 74 7.69 7.1 46 50 1012.6 18 17.7 25.0 37.2 97.5 89.0 305.3
08/05 01:30 11.3 74 7.55 6.8 44 56 1012.8 18 17.5 24.9 36.8 96.4 87.5 300.1
08/05 01:20 11.4 75 7.7 7.1 44 50 1013 18 17.8 25.1 37.3 97.9 89.4 306.7
08/05 01:10 11 74 7.41 6.6 44 52 1013.1 18 17.2 24.8 36.4 95.3 86.0 294.8
08/05 01:00 11.1 75 7.56 6.8 46 61 1013.3 18 17.5 25.0 36.9 96.8 87.9 301.4
08/05 00:50 11.2 76 7.7 7.1 46 52 1013.6 18 17.8 25.2 37.5 98.2 89.7 307.6
08/05 00:40 10.9 75 7.46 6.6 48 52 1013.7 18 17.3 24.9 36.6 96.0 86.9 297.7
08/05 00:30 11.1 76 7.66 7 50 61 1013.9 18 17.7 25.2 37.4 97.9 89.3 306.2
08/05 00:20 10.9 76 7.56 6.8 48 56 1014.1 18 17.5 25.1 37.1 97.1 88.2 302.4
08/05 00:10 11 77 7.71 7.1 44 52 1014.2 18 17.8 25.3 37.6 98.6 90.1 309.0
08/05 00:00 10.9 75 7.46 6.6 46 56 1014.3 18 17.3 24.9 36.7 96.0 86.9 297.8
07/05 23:50 10.8 75 7.41 6.6 43 50 1014.5 18 17.2 24.9 36.5 95.7 86.4 295.9
07/05 23:40 10.7 75 7.37 6.5 46 54 1014.7 18 17.1 24.8 36.4 95.4 86.0 294.5
07/05 23:30 10.9 78 7.76 7.2 43 56 1014.8 18 17.9 25.4 37.9 99.3 90.9 311.9
07/05 23:20 10.7 77 7.56 6.8 46 57 1015 18 17.5 25.2 37.2 97.4 88.5 303.4
07/05 23:10 10.5 76 7.37 6.5 50 59 1015 18 17.1 24.9 36.5 95.6 86.2 295.3
07/05 23:00 10.5 77 7.47 6.6 46 59 1015.2 18 17.3 25.1 36.9 96.7 87.5 300.0
07/05 22:50 10.4 77 7.42 6.5 46 54 1015.3 18 17.2 25.0 36.8 96.3 87.0 298.1
07/05 22:40 10.3 79 7.57 6.8 48 54 1015.5 18 17.5 25.3 37.4 98.1 89.1 305.5
07/05 22:30 10 81 7.61 6.9 48 61 1015.7 18 17.6 25.5 37.8 98.9 90.0 308.6
07/05 22:20 10 82 7.71 7.1 50 61 1015.8 18 17.9 25.6 38.2 100.0 91.4 313.4
07/05 22:10 10 82 7.71 7.1 52 59 1015.8 18 17.9 25.6 38.2 100.0 91.4 313.4
07/05 22:00 9.9 83 7.75 7.2 50 65 1015.8 18 17.9 25.7 38.4 100.6 92.0 315.7
07/05 21:50 9.8 85 7.89 7.4 46 52 1015.9 18 18.3 26.0 39.0 102.3 94.1 322.8
07/05 21:40 9.9 87 8.13 7.8 44 48 1015.9 18 18.8 26.4 40.0 104.8 97.2 333.8
07/05 21:30 9.5 87 7.92 7.4 50 65 1016 18 18.3 26.1 39.3 103.0 94.9 325.5
07/05 21:20 9.7 88 8.11 7.8 50 59 1016 18 18.7 26.4 40.0 104.9 97.2 333.8
07/05 21:10 9.9 84 7.85 7.3 52 65 1015.9 17.8 18.2 25.9 38.8 101.7 93.4 320.4
07/05 21:00 10 83 7.8 7.3 50 63 1015.9 17.8 18.1 25.8 38.5 101.0 92.6 317.7
07/05 20:50 10.1 81 7.66 7 50 61 1015.7 17.8 17.7 25.5 37.9 99.3 90.6 310.6
07/05 20:40 9.9 80 7.47 6.6 59 65 1015.8 17.8 17.3 25.3 37.2 97.5 88.3 302.5
07/05 20:30 9.9 81 7.56 6.8 54 69 1015.7 17.8 17.5 25.4 37.6 98.5 89.5 306.7
07/05 20:20 9.9 80 7.47 6.6 52 65 1015.8 17.8 17.3 25.3 37.2 97.5 88.3 302.5
07/05 20:10 9.8 80 7.42 6.5 54 61 1015.9 17.8 17.2 25.2 37.1 97.1 87.7 300.6
07/05 20:00 9.8 81 7.52 6.7 54 70 1015.9 17.8 17.5 25.4 37.5 98.2 89.1 305.2

Last Refresh: 08-May-2026 12:07:17

Bureau of Meteorology